Time;durP1;ratioP1;P1;durP2;ratioP2;P2;SDS_P1;SDS_P2;PMS_P1;PMS_P2;Temp;Humidity;BMP_temperature;BMP_pressure;BME280_temperature;BME280_humidity;BME280_pressure;Samples;Min_cycle;Max_cycle;Signal;HPM_P1;HPM_P2
2023/03/29 00:01:51;;;;;;;;;;;;;;;;;;5061715;28;19905;-36
2023/03/29 00:04:21;;;;;;;;;;;;;;;;;;5053325;28;19917;-36
2023/03/29 00:06:47;;;;;;;;;;;;;;;;;;5063883;28;19905;-36
2023/03/29 00:09:14;;;;;;;;;;;;;;;;;;5070345;28;19950;-39
2023/03/29 00:11:41;;;;;;;;;;;;;;;;;;5070470;28;19916;-38
2023/03/29 00:14:07;;;;;;;;;;;;;;;;;;5069719;28;19961;-39
2023/03/29 00:16:33;;;;;;;;;;;;;;;;;;5056630;28;19944;-39
2023/03/29 00:19:00;;;;;;;;;;;;;;;;;;5071724;28;19913;-38
2023/03/29 00:21:26;;;;;;;;;;;;;;;;;;5070970;28;20352;-38
2023/03/29 00:23:52;;;;;;;;;;;;;;;;;;5062522;28;19967;-38
2023/03/29 00:26:19;;;;;;;;;;;;;;;;;;5067522;28;20273;-38
2023/03/29 00:28:45;;;;;;;;;;;;;;;;;;5071142;28;19916;-38
2023/03/29 00:31:12;;;;;;;;;;;;;;;;;;5071431;28;19912;-38
2023/03/29 00:33:38;;;;;;;;;;;;;;;;;;5071779;28;19912;-38
2023/03/29 00:36:04;;;;;;;;;;;;;;;;;;5071523;28;19927;-38
2023/03/29 00:38:31;;;;;;;;;;;;;;;;;;5071755;28;19908;-38
2023/03/29 00:40:57;;;;;;;;;;;;;;;;;;5071650;28;19904;-38
2023/03/29 00:43:23;;;;;;;;;;;;;;;;;;5072568;28;20392;-38
2023/03/29 00:45:50;;;;;;;;;;;;;;;;;;5075785;28;20374;-38
2023/03/29 00:48:16;;;;;;;;;;;;;;;;;;5075729;28;19909;-38
2023/03/29 00:50:43;;;;;;;;;;;;;;;;;;5075389;28;19965;-38
2023/03/29 00:53:11;;;;;;;;;;;;;;;;;;5075595;28;19905;-38
2023/03/29 00:55:37;;;;;;;;;;;;;;;;;;5075603;28;19905;-38
2023/03/29 00:58:04;;;;;;;;;;;;;;;;;;5074069;28;19934;-38
2023/03/29 01:00:30;;;;;;;;;;;;;;;;;;5074825;28;19912;-38
2023/03/29 01:02:58;;;;;;;;;;;;;;;;;;5075137;28;19913;-38
2023/03/29 01:05:24;;;;;;;;;;;;;;;;;;5058391;28;19999;-38
2023/03/29 01:07:52;;;;;;;;;;;;;;;;;;5072272;28;19905;-39
2023/03/29 01:10:19;;;;;;;;;;;;;;;;;;5058140;28;19909;-39
2023/03/29 01:12:45;;;;;;;;;;;;;;;;;;5055265;28;19909;-39
2023/03/29 01:15:12;;;;;;;;;;;;;;;;;;5055277;28;20415;-38
2023/03/29 01:17:39;;;;;;;;;;;;;;;;;;5055047;28;19999;-39
2023/03/29 01:20:09;;;;;;;;;;;;;;;;;;5055103;28;20379;-39
2023/03/29 01:22:37;;;;;;;;;;;;;;;;;;5057963;28;19920;-39
2023/03/29 01:25:04;;;;;;;;;;;;;;;;;;5056779;28;19923;-39
2023/03/29 01:27:30;;;;;;;;;;;;;;;;;;5071694;28;19930;-39
2023/03/29 01:29:59;;;;;;;;;;;;;;;;;;5073128;28;19962;-39
2023/03/29 01:32:25;;;;;;;;;;;;;;;;;;5071539;28;20070;-40
2023/03/29 01:34:51;;;;;;;;;;;;;;;;;;5070957;28;19951;-40
2023/03/29 01:37:18;;;;;;;;;;;;;;;;;;5073175;28;19908;-37
2023/03/29 01:39:44;;;;;;;;;;;;;;;;;;5067706;28;19908;-38
2023/03/29 01:42:11;;;;;;;;;;;;;;;;;;5070668;28;20510;-39
2023/03/29 01:44:37;;;;;;;;;;;;;;;;;;5067199;28;19909;-39
2023/03/29 01:47:03;;;;;;;;;;;;;;;;;;5062161;28;20422;-40
2023/03/29 01:49:31;;;;;;;;;;;;;;;;;;5062049;28;20605;-38
2023/03/29 01:51:57;;;;;;;;;;;;;;;;;;5062619;28;19959;-39
2023/03/29 01:54:24;;;;;;;;;;;;;;;;;;5071234;28;20377;-39
2023/03/29 01:56:50;;;;;;;;;;;;;;;;;;5071905;28;19912;-39
2023/03/29 01:59:17;;;;;;;;;;;;;;;;;;5072742;28;19957;-39
2023/03/29 02:01:47;;;;;;;;;;;;;;;;;;5072914;28;19913;-38
2023/03/29 02:04:14;;;;;;;;;;;;;;;;;;5070921;28;20018;-38
2023/03/29 02:06:40;;;;;;;;;;;;;;;;;;5072891;28;19916;-38
2023/03/29 02:09:07;;;;;;;;;;;;;;;;;;5072426;28;19911;-40
2023/03/29 02:11:33;;;;;;;;;;;;;;;;;;5072372;28;19915;-39
2023/03/29 02:14:00;;;;;;;;;;;;;;;;;;5072360;28;19951;-39
2023/03/29 02:16:26;;;;;;;;;;;;;;;;;;5072230;28;19908;-38
2023/03/29 02:18:53;;;;;;;;;;;;;;;;;;5072392;28;19992;-38
2023/03/29 02:21:20;;;;;;;;;;;;;;;;;;5071988;28;19986;-39
2023/03/29 02:23:47;;;;;;;;;;;;;;;;;;5073314;28;19912;-39
2023/03/29 02:26:14;;;;;;;;;;;;;;;;;;5073706;28;19962;-39
2023/03/29 02:28:40;;;;;;;;;;;;;;;;;;5073743;28;20427;-39
2023/03/29 02:31:07;;;;;;;;;;;;;;;;;;5073898;28;19958;-39
2023/03/29 02:33:33;;;;;;;;;;;;;;;;;;5073833;28;19927;-39
2023/03/29 02:36:00;;;;;;;;;;;;;;;;;;5073769;28;20320;-39
2023/03/29 02:38:27;;;;;;;;;;;;;;;;;;5073760;28;19911;-39
2023/03/29 02:40:54;;;;;;;;;;;;;;;;;;5073769;28;19999;-39
2023/03/29 02:43:20;;;;;;;;;;;;;;;;;;5073648;28;19939;-39
2023/03/29 02:45:46;;;;;;;;;;;;;;;;;;5073555;28;19916;-39
2023/03/29 02:48:13;;;;;;;;;;;;;;;;;;5073570;28;19904;-39
2023/03/29 02:50:39;;;;;;;;;;;;;;;;;;5073627;28;19908;-39
2023/03/29 02:53:06;;;;;;;;;;;;;;;;;;5073422;28;19951;-39
2023/03/29 02:55:33;;;;;;;;;;;;;;;;;;5073294;28;20258;-39
2023/03/29 02:58:06;;;;;;;;;;;;;;;;;;5073144;28;20381;-39
2023/03/29 03:00:33;;;;;;;;;;;;;;;;;;5073231;28;19908;-39
2023/03/29 03:02:59;;;;;;;;;;;;;;;;;;5073102;28;19908;-39
2023/03/29 03:05:25;;;;;;;;;;;;;;;;;;5073276;28;19912;-39
2023/03/29 03:07:52;;;;;;;;;;;;;;;;;;5073204;28;19904;-39
2023/03/29 03:10:18;;;;;;;;;;;;;;;;;;5073099;28;19909;-39
2023/03/29 03:12:44;;;;;;;;;;;;;;;;;;5073195;28;20268;-39
2023/03/29 03:15:12;;;;;;;;;;;;;;;;;;5073137;28;19908;-39
2023/03/29 03:17:39;;;;;;;;;;;;;;;;;;5072835;28;19915;-39
2023/03/29 03:20:11;;;;;;;;;;;;;;;;;;5072833;28;19909;-39
2023/03/29 03:22:38;;;;;;;;;;;;;;;;;;5072715;28;20440;-39
2023/03/29 03:25:04;;;;;;;;;;;;;;;;;;5072945;28;19920;-39
2023/03/29 03:27:32;;;;;;;;;;;;;;;;;;5072513;28;19978;-39
2023/03/29 03:29:59;;;;;;;;;;;;;;;;;;5072713;28;19904;-39
2023/03/29 03:32:25;;;;;;;;;;;;;;;;;;5073130;28;20408;-39
2023/03/29 03:34:52;;;;;;;;;;;;;;;;;;5072680;28;20331;-39
2023/03/29 03:37:18;;;;;;;;;;;;;;;;;;5072584;28;19989;-39
2023/03/29 03:39:45;;;;;;;;;;;;;;;;;;5072668;28;19919;-39
2023/03/29 03:42:11;;;;;;;;;;;;;;;;;;5072570;28;19912;-39
2023/03/29 03:44:38;;;;;;;;;;;;;;;;;;5072519;28;20369;-39
2023/03/29 03:47:05;;;;;;;;;;;;;;;;;;5072447;28;19987;-39
2023/03/29 03:49:31;;;;;;;;;;;;;;;;;;5072659;28;19908;-39
2023/03/29 03:51:58;;;;;;;;;;;;;;;;;;5072453;28;19911;-39
2023/03/29 03:54:24;;;;;;;;;;;;;;;;;;5072434;28;19904;-39
2023/03/29 03:56:51;;;;;;;;;;;;;;;;;;5072288;28;19912;-39
2023/03/29 03:59:17;;;;;;;;;;;;;;;;;;5072286;28;19938;-39
2023/03/29 04:01:44;;;;;;;;;;;;;;;;;;5072327;28;19915;-39
2023/03/29 04:04:10;;;;;;;;;;;;;;;;;;5072201;28;19919;-39
2023/03/29 04:06:36;;;;;;;;;;;;;;;;;;5072165;28;19951;-39
2023/03/29 04:09:03;;;;;;;;;;;;;;;;;;5072185;28;19905;-39
2023/03/29 04:11:29;;;;;;;;;;;;;;;;;;5072134;28;19908;-39
2023/03/29 04:13:56;;;;;;;;;;;;;;;;;;5072168;28;19951;-39
2023/03/29 04:16:22;;;;;;;;;;;;;;;;;;5071948;28;20001;-39
2023/03/29 04:18:49;;;;;;;;;;;;;;;;;;5071570;28;19908;-39
2023/03/29 04:21:15;;;;;;;;;;;;;;;;;;5072136;28;19952;-39
2023/03/29 04:23:42;;;;;;;;;;;;;;;;;;5071850;28;19927;-39
2023/03/29 04:26:08;;;;;;;;;;;;;;;;;;5071514;28;20427;-39
2023/03/29 04:28:35;;;;;;;;;;;;;;;;;;5072067;28;20354;-39
2023/03/29 04:31:01;;;;;;;;;;;;;;;;;;5071867;28;19908;-39
2023/03/29 04:33:28;;;;;;;;;;;;;;;;;;5072009;28;20006;-39
2023/03/29 04:35:54;;;;;;;;;;;;;;;;;;5071920;28;19904;-39
2023/03/29 04:38:21;;;;;;;;;;;;;;;;;;5071821;28;19958;-39
2023/03/29 04:40:48;;;;;;;;;;;;;;;;;;5071932;28;19940;-39
2023/03/29 04:43:14;;;;;;;;;;;;;;;;;;5071735;28;19912;-39
2023/03/29 04:45:40;;;;;;;;;;;;;;;;;;5071897;28;19923;-39
2023/03/29 04:48:07;;;;;;;;;;;;;;;;;;5071912;28;19904;-39
2023/03/29 04:50:35;;;;;;;;;;;;;;;;;;5071720;28;19909;-39
2023/03/29 04:53:02;;;;;;;;;;;;;;;;;;5071656;28;20343;-39
2023/03/29 04:55:28;;;;;;;;;;;;;;;;;;5071493;28;19904;-39
2023/03/29 04:57:55;;;;;;;;;;;;;;;;;;5071476;28;19908;-39
2023/03/29 05:00:25;;;;;;;;;;;;;;;;;;5071714;28;19904;-39
2023/03/29 05:02:52;;;;;;;;;;;;;;;;;;5071451;28;19909;-39
2023/03/29 05:05:18;;;;;;;;;;;;;;;;;;5071761;28;20357;-39
2023/03/29 05:07:45;;;;;;;;;;;;;;;;;;5071409;28;19904;-39
2023/03/29 05:10:11;;;;;;;;;;;;;;;;;;5071621;28;19943;-39
2023/03/29 05:12:38;;;;;;;;;;;;;;;;;;5071557;28;19904;-39
2023/03/29 05:15:04;;;;;;;;;;;;;;;;;;5071521;28;20010;-39
2023/03/29 05:17:30;;;;;;;;;;;;;;;;;;5071490;28;19995;-39
2023/03/29 05:19:57;;;;;;;;;;;;;;;;;;5071723;28;19905;-39
2023/03/29 05:22:23;;;;;;;;;;;;;;;;;;5071095;28;19912;-39
2023/03/29 05:24:51;;;;;;;;;;;;;;;;;;5071520;28;20007;-39
2023/03/29 05:27:18;;;;;;;;;;;;;;;;;;5071113;28;19942;-39
2023/03/29 05:29:44;;;;;;;;;;;;;;;;;;5071437;28;19908;-39
2023/03/29 05:32:10;;;;;;;;;;;;;;;;;;5074970;28;19995;-39
2023/03/29 05:34:38;;;;;;;;;;;;;;;;;;5075082;28;19923;-39
2023/03/29 05:37:04;;;;;;;;;;;;;;;;;;5074795;28;19954;-39
2023/03/29 05:39:32;;;;;;;;;;;;;;;;;;5074961;28;20349;-39
2023/03/29 05:41:59;;;;;;;;;;;;;;;;;;5074879;28;19908;-39
2023/03/29 05:44:25;;;;;;;;;;;;;;;;;;5074662;28;19914;-38
2023/03/29 05:46:51;;;;;;;;;;;;;;;;;;5074728;28;19912;-39
2023/03/29 05:49:18;;;;;;;;;;;;;;;;;;5074731;28;19986;-39
2023/03/29 05:51:45;;;;;;;;;;;;;;;;;;5074690;28;19908;-39
2023/03/29 05:54:11;;;;;;;;;;;;;;;;;;5074592;28;19948;-39
2023/03/29 05:56:37;;;;;;;;;;;;;;;;;;5074619;28;20365;-39
2023/03/29 05:59:04;;;;;;;;;;;;;;;;;;5074638;28;19908;-39
2023/03/29 06:01:31;;;;;;;;;;;;;;;;;;5070325;28;19917;-39
2023/03/29 06:03:57;;;;;;;;;;;;;;;;;;5074427;28;19927;-38
2023/03/29 06:06:24;;;;;;;;;;;;;;;;;;5074357;28;19904;-39
2023/03/29 06:08:50;;;;;;;;;;;;;;;;;;5074347;28;19970;-39
2023/03/29 06:11:17;;;;;;;;;;;;;;;;;;5074376;28;19905;-39
2023/03/29 06:13:43;;;;;;;;;;;;;;;;;;5074418;28;19908;-39
2023/03/29 06:16:09;;;;;;;;;;;;;;;;;;5074175;28;20347;-39
2023/03/29 06:18:38;;;;;;;;;;;;;;;;;;5074150;28;19908;-39
2023/03/29 06:21:05;;;;;;;;;;;;;;;;;;5074122;28;19947;-39
2023/03/29 06:23:31;;;;;;;;;;;;;;;;;;5074088;28;19908;-39
2023/03/29 06:25:58;;;;;;;;;;;;;;;;;;5073999;28;20009;-39
2023/03/29 06:28:25;;;;;;;;;;;;;;;;;;5073776;28;19917;-39
2023/03/29 06:30:55;;;;;;;;;;;;;;;;;;5073996;28;19944;-39
2023/03/29 06:33:21;;;;;;;;;;;;;;;;;;5073970;28;20408;-39
2023/03/29 06:35:48;;;;;;;;;;;;;;;;;;5073834;28;19940;-39
2023/03/29 06:38:15;;;;;;;;;;;;;;;;;;5073759;28;20407;-39
2023/03/29 06:40:43;;;;;;;;;;;;;;;;;;5073696;28;19999;-39
2023/03/29 06:43:09;;;;;;;;;;;;;;;;;;5073452;28;20411;-39
2023/03/29 06:45:36;;;;;;;;;;;;;;;;;;5073643;28;20757;-39
2023/03/29 06:48:02;;;;;;;;;;;;;;;;;;5073706;28;20409;-39
2023/03/29 06:50:28;;;;;;;;;;;;;;;;;;5073685;28;20247;-39
2023/03/29 06:52:55;;;;;;;;;;;;;;;;;;5073519;28;20366;-39
2023/03/29 06:55:22;;;;;;;;;;;;;;;;;;5073495;28;19912;-39
2023/03/29 06:57:48;;;;;;;;;;;;;;;;;;5073404;28;19907;-39
2023/03/29 07:00:34;;;;;;;;;;;;;;;;;;5073487;28;19905;-39
2023/03/29 07:03:00;;;;;;;;;;;;;;;;;;5073342;28;19912;-39
2023/03/29 07:05:28;;;;;;;;;;;;;;;;;;5073478;28;19916;-39
2023/03/29 07:10:40;;;;;;;;;;;;;;;;;;5072688;28;20348;-39
2023/03/29 07:13:07;;;;;;;;;;;;;;;;;;5073231;28;19916;-39
2023/03/29 07:15:34;;;;;;;;;;;;;;;;;;5072974;28;19905;-39
2023/03/29 07:18:01;;;;;;;;;;;;;;;;;;5073101;28;19957;-39
2023/03/29 07:20:27;;;;;;;;;;;;;;;;;;5073054;28;19908;-39
2023/03/29 07:22:53;;;;;;;;;;;;;;;;;;5072934;28;19920;-39
2023/03/29 07:25:20;;;;;;;;;;;;;;;;;;5072863;28;19999;-39
2023/03/29 07:27:46;;;;;;;;;;;;;;;;;;5072712;28;20262;-39
2023/03/29 07:30:13;;;;;;;;;;;;;;;;;;5072884;28;19912;-39
2023/03/29 07:32:39;;;;;;;;;;;;;;;;;;5072761;28;19943;-39
2023/03/29 07:35:05;;;;;;;;;;;;;;;;;;5072734;28;20281;-39
2023/03/29 07:37:33;;;;;;;;;;;;;;;;;;5072634;28;19904;-39
2023/03/29 07:40:00;;;;;;;;;;;;;;;;;;5072666;28;19911;-39
2023/03/29 07:42:27;;;;;;;;;;;;;;;;;;5072434;28;19909;-39
2023/03/29 07:44:54;;;;;;;;;;;;;;;;;;5072345;28;19912;-39
2023/03/29 07:47:20;;;;;;;;;;;;;;;;;;5072353;28;19904;-39
2023/03/29 07:49:47;;;;;;;;;;;;;;;;;;5072491;28;19904;-39
2023/03/29 07:52:13;;;;;;;;;;;;;;;;;;5072451;28;20362;-39
2023/03/29 07:54:40;;;;;;;;;;;;;;;;;;5071898;28;19909;-39
2023/03/29 07:57:06;;;;;;;;;;;;;;;;;;5072311;28;19909;-39
2023/03/29 07:59:33;;;;;;;;;;;;;;;;;;5072240;28;19908;-39
2023/03/29 08:02:00;;;;;;;;;;;;;;;;;;5072387;28;20011;-37
2023/03/29 08:04:26;;;;;;;;;;;;;;;;;;5072222;28;19912;-38
2023/03/29 08:06:54;;;;;;;;;;;;;;;;;;5072142;28;19938;-38
2023/03/29 08:09:20;;;;;;;;;;;;;;;;;;5072223;28;19912;-38
2023/03/29 08:11:47;;;;;;;;;;;;;;;;;;5072278;28;19999;-38
2023/03/29 08:14:13;;;;;;;;;;;;;;;;;;5072255;28;19909;-38
2023/03/29 08:16:40;;;;;;;;;;;;;;;;;;5072074;28;19912;-38
2023/03/29 08:19:06;;;;;;;;;;;;;;;;;;5072198;28;20366;-38
2023/03/29 08:21:32;;;;;;;;;;;;;;;;;;5072069;28;20358;-38
2023/03/29 08:23:59;;;;;;;;;;;;;;;;;;5072003;28;19923;-38
2023/03/29 08:26:25;;;;;;;;;;;;;;;;;;5071735;28;19923;-38
2023/03/29 08:28:52;;;;;;;;;;;;;;;;;;5072047;28;20395;-38
2023/03/29 08:31:18;;;;;;;;;;;;;;;;;;5072099;28;19916;-38
2023/03/29 08:33:45;;;;;;;;;;;;;;;;;;5072035;28;19908;-38
2023/03/29 08:36:11;;;;;;;;;;;;;;;;;;5071971;28;19916;-38
2023/03/29 08:38:38;;;;;;;;;;;;;;;;;;5072037;28;19944;-38
2023/03/29 08:41:04;;;;;;;;;;;;;;;;;;5072049;28;19912;-38
2023/03/29 08:43:31;;;;;;;;;;;;;;;;;;5071860;28;19920;-38
2023/03/29 08:45:58;;;;;;;;;;;;;;;;;;5071937;28;19934;-38
2023/03/29 08:48:25;;;;;;;;;;;;;;;;;;5071845;28;20002;-38
2023/03/29 08:50:52;;;;;;;;;;;;;;;;;;5071781;28;19915;-38
2023/03/29 08:53:18;;;;;;;;;;;;;;;;;;5071804;28;20301;-38
2023/03/29 08:55:44;;;;;;;;;;;;;;;;;;5071816;28;20641;-38
2023/03/29 08:58:11;;;;;;;;;;;;;;;;;;5071863;28;19912;-38
2023/03/29 09:00:37;;;;;;;;;;;;;;;;;;5071712;28;20356;-38
2023/03/29 09:03:05;;;;;;;;;;;;;;;;;;5071713;28;20384;-38
2023/03/29 09:05:32;;;;;;;;;;;;;;;;;;5074302;28;19908;-38
2023/03/29 09:07:59;;;;;;;;;;;;;;;;;;5075557;28;19904;-38
2023/03/29 09:10:26;;;;;;;;;;;;;;;;;;5075574;28;19920;-38
2023/03/29 09:12:53;;;;;;;;;;;;;;;;;;5075565;28;19908;-38
2023/03/29 09:15:19;;;;;;;;;;;;;;;;;;5075287;28;20441;-38
2023/03/29 09:17:46;;;;;;;;;;;;;;;;;;5075449;28;19913;-38
2023/03/29 09:20:12;;;;;;;;;;;;;;;;;;5066490;28;21198;-39
2023/03/29 09:22:39;;;;;;;;;;;;;;;;;;5072356;28;20321;-38
2023/03/29 09:25:05;;;;;;;;;;;;;;;;;;5073821;28;19957;-38
2023/03/29 09:27:31;;;;;;;;;;;;;;;;;;5054566;28;19967;-39
2023/03/29 09:29:58;;;;;;;;;;;;;;;;;;5055119;28;20671;-38
2023/03/29 09:32:25;;;;;;;;;;;;;;;;;;5055142;28;19908;-37
2023/03/29 09:34:51;;;;;;;;;;;;;;;;;;5055144;28;20019;-39
2023/03/29 09:37:20;;;;;;;;;;;;;;;;;;5055038;28;19909;-39
2023/03/29 09:39:46;;;;;;;;;;;;;;;;;;5064102;28;20501;-37
2023/03/29 09:42:13;;;;;;;;;;;;;;;;;;5083015;28;20373;-39
2023/03/29 09:44:40;;;;;;;;;;;;;;;;;;5067616;28;19917;-39
2023/03/29 09:47:06;;;;;;;;;;;;;;;;;;5067596;28;19918;-37
2023/03/29 09:49:33;;;;;;;;;;;;;;;;;;5074771;28;20278;-38
2023/03/29 09:51:59;;;;;;;;;;;;;;;;;;5074842;28;19912;-37
2023/03/29 09:54:25;;;;;;;;;;;;;;;;;;5074745;28;20014;-37
2023/03/29 09:56:52;;;;;;;;;;;;;;;;;;5074692;28;19919;-37
2023/03/29 09:59:18;;;;;;;;;;;;;;;;;;5074706;28;20330;-37
2023/03/29 10:01:45;;;;;;;;;;;;;;;;;;5074705;28;19914;-38
2023/03/29 10:04:11;;;;;;;;;;;;;;;;;;5074483;28;19947;-38
2023/03/29 10:06:38;;;;;;;;;;;;;;;;;;5074477;28;19908;-37
2023/03/29 10:09:04;;;;;;;;;;;;;;;;;;5074502;28;19947;-37
2023/03/29 10:11:31;;;;;;;;;;;;;;;;;;5074533;28;19912;-38
2023/03/29 10:13:59;;;;;;;;;;;;;;;;;;5074371;28;20423;-37
2023/03/29 10:16:25;;;;;;;;;;;;;;;;;;5073519;28;19951;-38
2023/03/29 10:18:53;;;;;;;;;;;;;;;;;;5074380;28;19977;-37
2023/03/29 10:21:19;;;;;;;;;;;;;;;;;;5074292;28;19967;-37
2023/03/29 10:23:46;;;;;;;;;;;;;;;;;;5079612;28;19916;-38
2023/03/29 10:26:12;;;;;;;;;;;;;;;;;;5094143;28;19912;-38
2023/03/29 10:28:38;;;;;;;;;;;;;;;;;;5069013;28;20393;-39
2023/03/29 10:31:06;;;;;;;;;;;;;;;;;;5072699;28;20003;-37
2023/03/29 10:33:33;;;;;;;;;;;;;;;;;;5072687;28;20350;-38
2023/03/29 10:35:59;;;;;;;;;;;;;;;;;;5072414;28;19912;-38
2023/03/29 10:38:26;;;;;;;;;;;;;;;;;;5072914;28;19931;-37
2023/03/29 10:40:53;;;;;;;;;;;;;;;;;;5073680;28;19999;-37
2023/03/29 10:43:19;;;;;;;;;;;;;;;;;;5073763;28;19916;-37
2023/03/29 10:45:45;;;;;;;;;;;;;;;;;;5073633;28;19908;-38
2023/03/29 10:48:12;;;;;;;;;;;;;;;;;;5072683;28;20003;-38
2023/03/29 10:50:38;;;;;;;;;;;;;;;;;;5072479;28;19909;-39
2023/03/29 10:53:05;;;;;;;;;;;;;;;;;;5072438;28;19929;-38
2023/03/29 10:55:32;;;;;;;;;;;;;;;;;;5072288;28;19916;-39
2023/03/29 10:57:58;;;;;;;;;;;;;;;;;;5072188;28;19915;-38
2023/03/29 11:00:25;;;;;;;;;;;;;;;;;;5072311;28;20419;-37
2023/03/29 11:02:52;;;;;;;;;;;;;;;;;;5072020;28;19920;-37
2023/03/29 11:05:19;;;;;;;;;;;;;;;;;;5071275;28;19928;-38
2023/03/29 11:07:45;;;;;;;;;;;;;;;;;;5071172;28;19909;-38
2023/03/29 11:10:11;;;;;;;;;;;;;;;;;;5073221;28;19912;-38
2023/03/29 11:12:38;;;;;;;;;;;;;;;;;;5073290;28;19912;-38
2023/03/29 11:15:05;;;;;;;;;;;;;;;;;;5073103;28;19908;-38
2023/03/29 11:17:31;;;;;;;;;;;;;;;;;;5071838;28;20362;-38
2023/03/29 11:19:58;;;;;;;;;;;;;;;;;;5071785;28;20451;-38
2023/03/29 11:22:24;;;;;;;;;;;;;;;;;;5072876;28;20364;-38
2023/03/29 11:24:51;;;;;;;;;;;;;;;;;;5072075;28;19958;-38
2023/03/29 11:27:17;;;;;;;;;;;;;;;;;;5071890;28;19927;-38
2023/03/29 11:29:44;;;;;;;;;;;;;;;;;;5071430;28;19999;-38
2023/03/29 11:32:10;;;;;;;;;;;;;;;;;;5072764;28;19987;-38
2023/03/29 11:34:37;;;;;;;;;;;;;;;;;;5072732;28;19908;-38
2023/03/29 11:37:03;;;;;;;;;;;;;;;;;;5072831;28;19912;-38
2023/03/29 11:39:30;;;;;;;;;;;;;;;;;;5072802;28;20274;-38
2023/03/29 11:41:56;;;;;;;;;;;;;;;;;;5072713;28;19954;-38
2023/03/29 11:44:22;;;;;;;;;;;;;;;;;;5072807;28;19920;-38
2023/03/29 11:46:49;;;;;;;;;;;;;;;;;;5072594;28;19916;-38
2023/03/29 11:49:15;;;;;;;;;;;;;;;;;;5072536;28;20415;-38
2023/03/29 11:51:42;;;;;;;;;;;;;;;;;;5072627;28;19930;-38
2023/03/29 11:54:08;;;;;;;;;;;;;;;;;;5072556;28;19909;-38
2023/03/29 11:56:35;;;;;;;;;;;;;;;;;;5072226;28;19955;-38
2023/03/29 11:59:01;;;;;;;;;;;;;;;;;;5072493;28;19962;-38
2023/03/29 12:01:28;;;;;;;;;;;;;;;;;;5072398;28;20266;-38
2023/03/29 12:03:54;;;;;;;;;;;;;;;;;;5072364;28;20532;-38
2023/03/29 12:06:21;;;;;;;;;;;;;;;;;;5072246;28;19948;-38
2023/03/29 12:08:47;;;;;;;;;;;;;;;;;;5072272;28;19981;-38
2023/03/29 12:11:13;;;;;;;;;;;;;;;;;;5072289;28;19915;-38
2023/03/29 12:13:40;;;;;;;;;;;;;;;;;;5072309;28;19912;-38
2023/03/29 12:16:06;;;;;;;;;;;;;;;;;;5072153;28;19920;-38
2023/03/29 12:18:33;;;;;;;;;;;;;;;;;;5072226;28;20423;-38
2023/03/29 12:21:00;;;;;;;;;;;;;;;;;;5072190;28;20422;-38
2023/03/29 12:23:26;;;;;;;;;;;;;;;;;;5072181;28;19916;-38
2023/03/29 12:25:53;;;;;;;;;;;;;;;;;;5072038;28;20015;-38
2023/03/29 12:28:19;;;;;;;;;;;;;;;;;;5071490;28;20416;-38
2023/03/29 12:30:45;;;;;;;;;;;;;;;;;;5072169;28;19991;-38
2023/03/29 12:33:12;;;;;;;;;;;;;;;;;;5072085;28;19947;-38
2023/03/29 12:35:38;;;;;;;;;;;;;;;;;;5071760;28;19912;-38
2023/03/29 12:38:06;;;;;;;;;;;;;;;;;;5072051;28;19951;-38
2023/03/29 12:40:32;;;;;;;;;;;;;;;;;;5074815;28;19919;-37
2023/03/29 12:42:58;;;;;;;;;;;;;;;;;;5076298;28;19917;-37
2023/03/29 12:45:25;;;;;;;;;;;;;;;;;;5075829;28;20434;-37
2023/03/29 12:47:51;;;;;;;;;;;;;;;;;;5075951;28;20377;-37
2023/03/29 12:50:18;;;;;;;;;;;;;;;;;;5075924;28;19912;-37
2023/03/29 12:52:45;;;;;;;;;;;;;;;;;;5075840;28;19915;-37
2023/03/29 12:55:12;;;;;;;;;;;;;;;;;;5075830;28;19912;-37
2023/03/29 12:57:39;;;;;;;;;;;;;;;;;;5075854;28;19908;-37
2023/03/29 13:00:06;;;;;;;;;;;;;;;;;;5075777;28;19908;-37
2023/03/29 13:02:33;;;;;;;;;;;;;;;;;;5075709;28;19908;-37
2023/03/29 13:05:00;;;;;;;;;;;;;;;;;;5075513;28;19954;-37
2023/03/29 13:07:26;;;;;;;;;;;;;;;;;;5075665;28;19912;-37
2023/03/29 13:09:52;;;;;;;;;;;;;;;;;;5075581;28;19917;-37
2023/03/29 13:12:19;;;;;;;;;;;;;;;;;;5075602;28;20365;-37
2023/03/29 13:14:45;;;;;;;;;;;;;;;;;;5075487;28;20429;-37
2023/03/29 13:17:12;;;;;;;;;;;;;;;;;;5075466;28;19955;-37
2023/03/29 13:19:38;;;;;;;;;;;;;;;;;;5075476;28;19909;-37
2023/03/29 13:22:05;;;;;;;;;;;;;;;;;;5075355;28;19950;-37
2023/03/29 13:24:31;;;;;;;;;;;;;;;;;;5075292;28;19916;-37
2023/03/29 13:26:58;;;;;;;;;;;;;;;;;;5075037;28;20286;-37
2023/03/29 13:29:24;;;;;;;;;;;;;;;;;;5075251;28;20001;-37
2023/03/29 13:31:51;;;;;;;;;;;;;;;;;;5075162;28;19912;-37
2023/03/29 13:34:17;;;;;;;;;;;;;;;;;;5075165;28;19935;-37
2023/03/29 13:36:44;;;;;;;;;;;;;;;;;;5074989;28;20365;-37
2023/03/29 13:39:11;;;;;;;;;;;;;;;;;;5075096;28;19948;-37
2023/03/29 13:41:37;;;;;;;;;;;;;;;;;;5074977;28;20366;-37
2023/03/29 13:44:04;;;;;;;;;;;;;;;;;;5074885;28;19923;-37
2023/03/29 13:46:30;;;;;;;;;;;;;;;;;;5074821;28;19923;-37
2023/03/29 13:48:57;;;;;;;;;;;;;;;;;;5074984;28;19908;-37
2023/03/29 13:51:23;;;;;;;;;;;;;;;;;;5073783;28;19962;-37
2023/03/29 13:53:49;;;;;;;;;;;;;;;;;;5074886;28;19908;-37
2023/03/29 13:56:16;;;;;;;;;;;;;;;;;;5074571;28;20425;-37
2023/03/29 13:58:43;;;;;;;;;;;;;;;;;;5074556;28;19912;-37
2023/03/29 14:01:09;;;;;;;;;;;;;;;;;;5074761;28;19909;-37
2023/03/29 14:03:35;;;;;;;;;;;;;;;;;;5074600;28;20263;-37
2023/03/29 14:06:03;;;;;;;;;;;;;;;;;;5074524;28;19991;-37
2023/03/29 14:08:29;;;;;;;;;;;;;;;;;;5074493;28;20377;-37
2023/03/29 14:10:56;;;;;;;;;;;;;;;;;;5074521;28;19908;-37
2023/03/29 14:13:22;;;;;;;;;;;;;;;;;;5074501;28;19952;-37
2023/03/29 14:15:49;;;;;;;;;;;;;;;;;;5074249;28;20293;-37
2023/03/29 14:18:15;;;;;;;;;;;;;;;;;;5074336;28;20362;-37
2023/03/29 14:20:42;;;;;;;;;;;;;;;;;;5074335;28;19912;-37
2023/03/29 14:23:08;;;;;;;;;;;;;;;;;;5074264;28;19920;-37
2023/03/29 14:25:34;;;;;;;;;;;;;;;;;;5074200;28;19951;-37
2023/03/29 14:28:01;;;;;;;;;;;;;;;;;;5074044;28;19939;-37
2023/03/29 14:30:27;;;;;;;;;;;;;;;;;;5074199;28;19909;-37
2023/03/29 14:32:55;;;;;;;;;;;;;;;;;;5074060;28;19962;-37
2023/03/29 14:35:21;;;;;;;;;;;;;;;;;;5073869;28;19912;-37
2023/03/29 14:37:48;;;;;;;;;;;;;;;;;;5074000;28;19919;-37
2023/03/29 14:40:15;;;;;;;;;;;;;;;;;;5073955;28;19915;-37
2023/03/29 14:42:42;;;;;;;;;;;;;;;;;;5073837;28;19973;-37
2023/03/29 14:45:08;;;;;;;;;;;;;;;;;;5073737;28;19914;-37
2023/03/29 14:47:35;;;;;;;;;;;;;;;;;;5073847;28;19909;-37
2023/03/29 14:50:02;;;;;;;;;;;;;;;;;;5073807;28;19939;-37
2023/03/29 14:52:29;;;;;;;;;;;;;;;;;;5073762;28;19915;-37
2023/03/29 14:54:58;;;;;;;;;;;;;;;;;;5073571;28;19934;-37
2023/03/29 14:57:25;;;;;;;;;;;;;;;;;;5073524;28;20279;-37
2023/03/29 14:59:53;;;;;;;;;;;;;;;;;;5073594;28;19923;-37
2023/03/29 15:02:19;;;;;;;;;;;;;;;;;;5073336;28;19912;-37
2023/03/29 15:04:46;;;;;;;;;;;;;;;;;;5073337;28;19955;-37
2023/03/29 15:07:12;;;;;;;;;;;;;;;;;;5073494;28;19914;-37
2023/03/29 15:09:39;;;;;;;;;;;;;;;;;;5073324;28;19912;-37
2023/03/29 15:12:05;;;;;;;;;;;;;;;;;;5073318;28;19909;-37
2023/03/29 15:14:36;;;;;;;;;;;;;;;;;;5073111;28;20319;-37
2023/03/29 15:17:03;;;;;;;;;;;;;;;;;;5073154;28;19908;-37
2023/03/29 15:19:30;;;;;;;;;;;;;;;;;;5073189;28;19908;-37
2023/03/29 15:21:56;;;;;;;;;;;;;;;;;;5072980;28;20324;-37
2023/03/29 15:24:23;;;;;;;;;;;;;;;;;;5072952;28;19951;-37
2023/03/29 15:26:49;;;;;;;;;;;;;;;;;;5072897;28;19959;-37
2023/03/29 15:29:22;;;;;;;;;;;;;;;;;;5073012;28;19912;-37
2023/03/29 15:31:48;;;;;;;;;;;;;;;;;;5073113;28;19916;-37
2023/03/29 15:34:14;;;;;;;;;;;;;;;;;;5072814;28;19908;-37
2023/03/29 15:36:41;;;;;;;;;;;;;;;;;;5072805;28;20597;-37
2023/03/29 15:39:07;;;;;;;;;;;;;;;;;;5072847;28;19913;-37
2023/03/29 15:41:34;;;;;;;;;;;;;;;;;;5072769;28;19919;-37
2023/03/29 15:44:00;;;;;;;;;;;;;;;;;;5072657;28;20140;-37
2023/03/29 15:46:27;;;;;;;;;;;;;;;;;;5072545;28;19909;-37
2023/03/29 15:48:53;;;;;;;;;;;;;;;;;;5072594;28;19912;-37
2023/03/29 15:51:20;;;;;;;;;;;;;;;;;;5072649;28;20479;-37
2023/03/29 15:53:46;;;;;;;;;;;;;;;;;;5072577;28;20002;-37
2023/03/29 15:56:12;;;;;;;;;;;;;;;;;;5072434;28;19908;-37
2023/03/29 15:58:39;;;;;;;;;;;;;;;;;;5072355;28;20588;-37
2023/03/29 16:01:10;;;;;;;;;;;;;;;;;;5072405;28;19978;-37
2023/03/29 16:03:37;;;;;;;;;;;;;;;;;;5072291;28;20374;-37
2023/03/29 16:06:03;;;;;;;;;;;;;;;;;;5072239;28;19998;-37
2023/03/29 16:08:29;;;;;;;;;;;;;;;;;;5072377;28;19943;-37
2023/03/29 16:10:56;;;;;;;;;;;;;;;;;;5072320;28;19913;-37
2023/03/29 16:13:22;;;;;;;;;;;;;;;;;;5072218;28;20377;-37
2023/03/29 16:15:49;;;;;;;;;;;;;;;;;;5071755;28;19919;-37
2023/03/29 16:18:15;;;;;;;;;;;;;;;;;;5072284;28;19999;-37
2023/03/29 16:20:41;;;;;;;;;;;;;;;;;;5072216;28;20385;-37
2023/03/29 16:23:08;;;;;;;;;;;;;;;;;;5072089;28;20340;-37
2023/03/29 16:25:36;;;;;;;;;;;;;;;;;;5072009;28;20003;-37
2023/03/29 16:28:03;;;;;;;;;;;;;;;;;;5071864;28;19920;-37
2023/03/29 16:30:30;;;;;;;;;;;;;;;;;;5072060;28;19954;-37
2023/03/29 16:32:57;;;;;;;;;;;;;;;;;;5054036;28;20339;-37
2023/03/29 16:35:23;;;;;;;;;;;;;;;;;;5071962;28;19943;-37
2023/03/29 16:37:49;;;;;;;;;;;;;;;;;;5072128;28;20342;-37
2023/03/29 16:40:16;;;;;;;;;;;;;;;;;;5072046;28;19936;-37
2023/03/29 16:42:43;;;;;;;;;;;;;;;;;;5071952;28;19912;-37
2023/03/29 16:45:09;;;;;;;;;;;;;;;;;;5071951;28;20270;-37